Tsurugi — JD2656 — position and weather

sailwx.info

Track history (hours):
 
Tides and Currents Weather Stations Pressure Air Temp Water Temp Dewpoint Dewpoint Depression Visibility Wind Speed Wind Dir Waves Ship Positions

Tsurugi

Last reported at 2018-Feb-25 13:28 UTC. Time now 2018-Feb-25 13:39 UTC.
Position N 34°33' E 135°27'.

Length 38 m; draft 4.9 m.

Type: Tug. MMSI: 431000584.

Date/timePositionNaut miles runAvg speedWind from/ knotsBaromVisibWave heightAir tempDewpointWater temp
2018-Feb-25 13:28N 34°33' E 135°27'0 0.0
2018-Feb-25 12:58N 34°33' E 135°27'0 0.0
2018-Feb-25 12:28N 34°33' E 135°27'0 0.0
2018-Feb-25 11:58N 34°33' E 135°27'0 0.0
2018-Feb-25 11:28N 34°33' E 135°27'0 0.0
2018-Feb-25 10:58N 34°33' E 135°27'0 0.0
2018-Feb-25 10:28N 34°33' E 135°27'0 0.0
2018-Feb-25 09:58N 34°33' E 135°27'0 0.0
2018-Feb-25 09:28N 34°33' E 135°27'0 0.5
2018-Feb-25 09:00N 34°33' E 135°26'2 4.8
2018-Feb-25 08:30N 34°32' E 135°24'0 0.2
2018-Feb-25 08:00N 34°32' E 135°24'1 2.7
2018-Feb-25 07:30N 34°31' E 135°24'0 0.1
2018-Feb-25 06:57N 34°31' E 135°24'0 0.0
2018-Feb-25 06:27N 34°31' E 135°24'0 0.0
2018-Feb-25 05:57N 34°31' E 135°24'0 0.0
2018-Feb-25 05:27N 34°31' E 135°24'3 7.5
2018-Feb-25 05:00N 34°34' E 135°23'611.8
2018-Feb-25 04:30N 34°39' E 135°25'0 0.5
2018-Feb-25 03:56N 34°40' E 135°25'0 0.0
2018-Feb-25 03:29N 34°40' E 135°25'0 0.0
2018-Feb-25 02:56N 34°40' E 135°25'1 2.0
2018-Feb-25 02:31N 34°39' E 135°24'510.1
2018-Feb-25 02:01N 34°34' E 135°24'1 1.2
2018-Feb-25 01:28N 34°33' E 135°24'0 0.1
2018-Feb-25 00:58N 34°33' E 135°24'0 0.0
2018-Feb-25 00:28N 34°33' E 135°24'0 1.0
2018-Feb-25 00:00N 34°33' E 135°24'3 5.3
2018-Feb-24 23:30N 34°33' E 135°20'0 0.4
2018-Feb-24 23:01N 34°33' E 135°20'510.1
2018-Feb-24 22:30N 34°33' E 135°27'0 0.0
2018-Feb-24 22:00N 34°33' E 135°27'0 0.0
2018-Feb-24 21:27N 34°33' E 135°27'0 0.0
2018-Feb-24 20:57N 34°33' E 135°27'0 0.0
2018-Feb-24 20:27N 34°33' E 135°27'0 0.0
2018-Feb-24 19:57N 34°33' E 135°27'0 0.0
2018-Feb-24 19:30N 34°33' E 135°27'0 0.0
2018-Feb-24 18:57N 34°33' E 135°27'0 0.0
2018-Feb-24 18:27N 34°33' E 135°27'0 0.0
2018-Feb-24 17:57N 34°33' E 135°27'0 0.0
2018-Feb-24 17:27N 34°33' E 135°27'0 0.0
2018-Feb-24 16:57N 34°33' E 135°27'0 0.0
2018-Feb-24 16:30N 34°33' E 135°27'0 0.0
2018-Feb-24 16:00N 34°33' E 135°27'0 0.0
2018-Feb-24 15:30N 34°33' E 135°27'0 0.0
2018-Feb-24 15:00N 34°33' E 135°27'0 0.0
2018-Feb-24 14:27N 34°33' E 135°27'0 0.0
2018-Feb-24 13:57N 34°33' E 135°27'0 0.0
2018-Feb-24 13:30N 34°33' E 135°27'0 0.0
2018-Feb-24 12:58N 34°33' E 135°27'4 7.8
2018-Feb-24 12:30N 34°36' E 135°24'3 5.1
2018-Feb-24 12:00N 34°35' E 135°27'1 1.2
2018-Feb-24 11:30N 34°35' E 135°26'2 4.1
2018-Feb-24 11:00N 34°36' E 135°24'0 0.7
2018-Feb-24 10:30N 34°36' E 135°24'0 0.0
2018-Feb-24 09:59N 34°36' E 135°24'0 0.0
2018-Feb-24 09:29N 34°36' E 135°24'2 4.8
2018-Feb-24 09:00N 34°35' E 135°26'1 1.1
2018-Feb-24 08:26N 34°35' E 135°27'0 0.3
2018-Feb-24 08:00N 34°35' E 135°27'0 0.0
2018-Feb-24 07:30N 34°35' E 135°27'0 0.0
2018-Feb-24 07:00N 34°35' E 135°27'0 0.0
2018-Feb-24 06:30N 34°35' E 135°27'3 6.0
2018-Feb-24 06:00N 34°35' E 135°24'1 2.4
2018-Feb-24 05:30N 34°34' E 135°24'0 0.7
2018-Feb-24 05:00N 34°34' E 135°24'0 0.3
2018-Feb-24 04:30N 34°34' E 135°24'1 1.3
2018-Feb-24 04:00N 34°33' E 135°25'1 2.4
2018-Feb-24 03:26N 34°33' E 135°27'0 0.0
2018-Feb-24 02:59N 34°33' E 135°27'0 0.0
2018-Feb-24 02:26N 34°33' E 135°27'0 0.0
2018-Feb-24 01:56N 34°33' E 135°27'0 0.0
2018-Feb-24 01:23N 34°33' E 135°27'0 0.0
2018-Feb-24 00:59N 34°33' E 135°27'0 0.0
2018-Feb-24 00:26N 34°33' E 135°27'0 0.0
2018-Feb-23 23:59N 34°33' E 135°27'2 3.8
2018-Feb-23 23:30N 34°33' E 135°24'510.3
2018-Feb-23 23:00N 34°39' E 135°24'0 0.7
2018-Feb-23 22:30N 34°38' E 135°23'1 1.9
2018-Feb-23 22:00N 34°38' E 135°23'4 8.7
2018-Feb-23 21:30N 34°33' E 135°24'2 3.4
2018-Feb-23 21:00N 34°33' E 135°27'0 0.0
2018-Feb-23 20:26N 34°33' E 135°27'0 0.0
2018-Feb-23 19:56N 34°33' E 135°27'0 0.0
2018-Feb-23 19:26N 34°33' E 135°27'0 0.0
2018-Feb-23 18:59N 34°33' E 135°27'0 0.0
2018-Feb-23 18:29N 34°33' E 135°27'0 0.0
2018-Feb-23 17:59N 34°33' E 135°27'0 0.1
2018-Feb-23 17:26N 34°33' E 135°27'0 0.0
2018-Feb-23 16:56N 34°33' E 135°27'0 0.0
2018-Feb-23 16:26N 34°33' E 135°27'0 0.0
2018-Feb-23 15:56N 34°33' E 135°27'0 0.0
2018-Feb-23 15:29N 34°33' E 135°27'0 0.0
2018-Feb-23 14:59N 34°33' E 135°27'0 0.0
2018-Feb-23 14:26N 34°33' E 135°27'0 0.0
2018-Feb-23 13:56N 34°33' E 135°27'0 0.0
2018-Feb-23 13:26N 34°33' E 135°27'0 0.0
2018-Feb-23 12:59N 34°33' E 135°27'0 0.0
2018-Feb-23 12:26N 34°33' E 135°27'0 0.0
2018-Feb-23 11:59N 34°33' E 135°27'0 0.0
2018-Feb-23 11:26N 34°33' E 135°27'0 0.0
2018-Feb-23 10:56N 34°33' E 135°27'0 0.0
2018-Feb-23 10:26N 34°33' E 135°27'0 0.0
2018-Feb-23 09:59N 34°33' E 135°27'0 0.0
2018-Feb-23 09:20N 34°33' E 135°27'0 0.0
2018-Feb-23 08:59N 34°33' E 135°27'0 0.0
2018-Feb-23 08:26N 34°33' E 135°27'0 0.0
2018-Feb-23 07:56N 34°33' E 135°27'0 0.0
2018-Feb-23 07:20N 34°33' E 135°27'0 0.0
2018-Feb-23 06:59N 34°33' E 135°27'0 0.0
2018-Feb-23 06:26N 34°33' E 135°27'0 0.0
2018-Feb-23 05:59N 34°33' E 135°27'0 0.0
2018-Feb-23 05:26N 34°33' E 135°27'0 0.0
2018-Feb-23 04:56N 34°33' E 135°27'0 0.0
2018-Feb-23 04:29N 34°33' E 135°27'0 0.0
2018-Feb-23 03:56N 34°33' E 135°27'0 0.0
2018-Feb-23 03:29N 34°33' E 135°27'0 0.0
2018-Feb-23 02:59N 34°33' E 135°27'0 0.0
2018-Feb-23 02:26N 34°33' E 135°27'0 0.0
2018-Feb-23 01:59N 34°33' E 135°27'0 0.0
2018-Feb-23 01:26N 34°33' E 135°27'0 0.0
2018-Feb-23 00:56N 34°33' E 135°27'0 0.0
2018-Feb-23 00:26N 34°33' E 135°27'0 0.0
2018-Feb-22 23:59N 34°33' E 135°27'0 0.0
2018-Feb-22 23:26N 34°33' E 135°27'0 0.0
2018-Feb-22 22:56N 34°33' E 135°27'0 0.0
2018-Feb-22 22:26N 34°33' E 135°27'0 0.0
2018-Feb-22 21:56N 34°33' E 135°27'0 0.0
2018-Feb-22 21:26N 34°33' E 135°27'0 0.0
2018-Feb-22 20:56N 34°33' E 135°27'0 0.0
2018-Feb-22 20:26N 34°33' E 135°27'0 0.0
2018-Feb-22 19:59N 34°33' E 135°27'0 0.0
2018-Feb-22 19:26N 34°33' E 135°27'0 0.0
2018-Feb-22 18:59N 34°33' E 135°27'0 0.0
2018-Feb-22 18:29N 34°33' E 135°27'0 0.0
2018-Feb-22 17:59N 34°33' E 135°27'0 0.1
2018-Feb-22 17:29N 34°33' E 135°27'0 0.0
2018-Feb-22 16:59N 34°33' E 135°27'0 0.0
2018-Feb-22 16:29N 34°33' E 135°27'0 0.0
2018-Feb-22 15:59N 34°33' E 135°27'0 0.0
2018-Feb-22 15:29N 34°33' E 135°27'0 0.0
2018-Feb-22 14:59N 34°33' E 135°27'0 0.0
2018-Feb-22 14:29N 34°33' E 135°27'0 0.0
2018-Feb-22 13:56N 34°33' E 135°27'0 0.0
2018-Feb-22 13:26N 34°33' E 135°27'0 0.0
2018-Feb-22 12:59N 34°33' E 135°27'0 0.0
2018-Feb-22 12:29N 34°33' E 135°27'0 0.0
2018-Feb-22 11:56N 34°33' E 135°27'0 0.0
2018-Feb-22 11:29N 34°33' E 135°27'0 0.0
2018-Feb-22 10:59N 34°33' E 135°27'0 0.0
2018-Feb-22 10:26N 34°33' E 135°27'0 0.0
2018-Feb-22 09:56N 34°33' E 135°27'0 0.0
2018-Feb-22 09:29N 34°33' E 135°27'0 0.0
2018-Feb-22 08:59N 34°33' E 135°27'0 0.0
2018-Feb-22 08:26N 34°33' E 135°27'3 7.6
2018-Feb-22 08:00N 34°36' E 135°24'4 7.1
2018-Feb-22 07:31N 34°39' E 135°26'0 0.2
2018-Feb-22 07:01N 34°39' E 135°26'0 0.1
2018-Feb-22 06:30N 34°39' E 135°26'1 2.4
2018-Feb-22 06:00N 34°39' E 135°24'4 8.0
2018-Feb-22 05:30N 34°35' E 135°22'4 8.4
2018-Feb-22 05:00N 34°31' E 135°21'3 5.8
2018-Feb-22 04:30N 34°28' E 135°21'1 1.4
2018-Feb-22 04:00N 34°29' E 135°20'3 5.9
2018-Feb-22 03:30N 34°31' E 135°22'5 9.7
2018-Feb-22 03:00N 34°36' E 135°24'0 0.0
2018-Feb-22 02:30N 34°36' E 135°24'0 0.0
2018-Feb-22 02:00N 34°36' E 135°24'0 0.0
2018-Feb-22 01:30N 34°36' E 135°24'0 0.0
2018-Feb-22 01:00N 34°36' E 135°24'2 4.1
2018-Feb-22 00:30N 34°35' E 135°26'1 1.5
2018-Feb-22 00:00N 34°35' E 135°27'2 4.3
2018-Feb-21 23:30N 34°36' E 135°24'1 1.9
2018-Feb-21 23:00N 34°36' E 135°23'1 1.7
2018-Feb-21 22:30N 34°35' E 135°23'4 6.9
2018-Feb-21 21:59N 34°33' E 135°27'0 0.0
2018-Feb-21 21:29N 34°33' E 135°27'0 0.0
2018-Feb-21 20:59N 34°33' E 135°27'0 0.0
2018-Feb-21 20:29N 34°33' E 135°27'0 0.0
2018-Feb-21 19:59N 34°33' E 135°27'0 0.0
2018-Feb-21 19:29N 34°33' E 135°27'0 0.0
2018-Feb-21 18:59N 34°33' E 135°27'0 0.0
2018-Feb-21 18:29N 34°33' E 135°27'0 0.0
2018-Feb-21 17:59N 34°33' E 135°27'0 0.0
2018-Feb-21 17:29N 34°33' E 135°27'0 0.0
2018-Feb-21 16:53N 34°33' E 135°27'0 0.0
2018-Feb-21 16:29N 34°33' E 135°27'0 0.0
2018-Feb-21 15:59N 34°33' E 135°27'0 0.0
2018-Feb-21 15:29N 34°33' E 135°27'0 0.0
2018-Feb-21 14:59N 34°33' E 135°27'0 0.0
2018-Feb-21 14:29N 34°33' E 135°27'0 0.1
2018-Feb-21 13:59N 34°33' E 135°27'0 0.1
2018-Feb-21 13:29N 34°33' E 135°27'0 0.0
2018-Feb-21 12:59N 34°33' E 135°27'0 0.0
2018-Feb-21 12:29N 34°33' E 135°27'0 0.0
2018-Feb-21 11:59N 34°33' E 135°27'0 0.0
2018-Feb-21 11:17N 34°33' E 135°27'0 0.0
2018-Feb-21 10:59N 34°33' E 135°27'0 0.0
2018-Feb-21 10:29N 34°33' E 135°27'0 0.0
2018-Feb-21 09:56N 34°33' E 135°27'0 0.0
2018-Feb-21 09:29N 34°33' E 135°27'0 0.0
2018-Feb-21 08:53N 34°33' E 135°27'0 0.0
2018-Feb-21 08:29N 34°33' E 135°27'0 0.0
2018-Feb-21 07:59N 34°33' E 135°27'0 0.0
2018-Feb-21 07:29N 34°33' E 135°27'0 0.0
2018-Feb-21 06:59N 34°33' E 135°27'0 0.0
2018-Feb-21 06:29N 34°33' E 135°27'0 0.0
2018-Feb-21 05:59N 34°33' E 135°27'0 0.0
2018-Feb-21 05:29N 34°33' E 135°27'0 0.0
2018-Feb-21 04:59N 34°33' E 135°27'0 0.0
2018-Feb-21 04:29N 34°33' E 135°27'0 0.0
2018-Feb-21 03:59N 34°33' E 135°27'0 0.0
2018-Feb-21 03:29N 34°33' E 135°27'0 0.0
2018-Feb-21 02:59N 34°33' E 135°27'0 0.0
2018-Feb-21 02:29N 34°33' E 135°27'0 0.0
2018-Feb-21 01:59N 34°33' E 135°27'0 0.0
2018-Feb-21 01:29N 34°33' E 135°27'0 0.0
2018-Feb-21 00:59N 34°33' E 135°27'0 0.0
2018-Feb-21 00:29N 34°33' E 135°27'0 0.0
2018-Feb-20 23:59N 34°33' E 135°27'0 0.0
2018-Feb-20 23:29N 34°33' E 135°27'0 0.9
2018-Feb-20 23:00N 34°33' E 135°26'2 4.5
2018-Feb-20 22:30N 34°36' E 135°26'1 2.6
2018-Feb-20 22:00N 34°35' E 135°27'2 3.6
2018-Feb-20 21:30N 34°36' E 135°25'1 2.7
2018-Feb-20 21:00N 34°36' E 135°23'4 7.3
2018-Feb-20 20:30N 34°33' E 135°27'0 0.0
2018-Feb-20 19:56N 34°33' E 135°27'0 0.0
2018-Feb-20 19:26N 34°33' E 135°27'0 0.0
2018-Feb-20 18:56N 34°33' E 135°27'0 0.0
2018-Feb-20 18:26N 34°33' E 135°27'0 0.0
2018-Feb-20 17:50N 34°33' E 135°27'0 0.1
2018-Feb-20 17:29N 34°33' E 135°27'0 0.0
2018-Feb-20 16:56N 34°33' E 135°27'0 0.0
2018-Feb-20 16:29N 34°33' E 135°27'0 0.0
2018-Feb-20 15:56N 34°33' E 135°27'0 0.0
2018-Feb-20 15:20N 34°33' E 135°27'0 0.0
2018-Feb-20 14:56N 34°33' E 135°27'0 0.0
2018-Feb-20 14:29N 34°33' E 135°27'0 0.0
2018-Feb-20 13:56N 34°33' E 135°27'0 0.0
2018-Feb-20 13:20N 34°33' E 135°27'0 0.0
2018-Feb-20 12:56N 34°33' E 135°27'0 0.0
2018-Feb-20 12:26N 34°33' E 135°27'0 0.0
2018-Feb-20 11:50N 34°33' E 135°27'0 0.0
2018-Feb-20 11:26N 34°33' E 135°27'0 0.0
2018-Feb-20 10:56N 34°33' E 135°27'0 0.0
2018-Feb-20 10:29N 34°33' E 135°27'0 0.0
2018-Feb-20 09:59N 34°33' E 135°27'0 0.0
2018-Feb-20 09:26N 34°33' E 135°27'0 0.0
2018-Feb-20 08:56N 34°33' E 135°27'0 0.0
2018-Feb-20 08:26N 34°33' E 135°27'0 0.0
2018-Feb-20 07:56N 34°33' E 135°27'0 0.0
2018-Feb-20 07:26N 34°33' E 135°27'0 0.0
2018-Feb-20 06:56N 34°33' E 135°27'0 0.0
2018-Feb-20 06:26N 34°33' E 135°27'0 0.0
2018-Feb-20 05:56N 34°33' E 135°27'0 0.0
2018-Feb-20 05:26N 34°33' E 135°27'0 0.0
2018-Feb-20 04:53N 34°33' E 135°27'0 0.0
2018-Feb-20 04:26N 34°33' E 135°27'0 0.0
2018-Feb-20 03:53N 34°33' E 135°27'0 0.0
2018-Feb-20 03:29N 34°33' E 135°27'0 0.0
2018-Feb-20 02:50N 34°33' E 135°27'0 0.0
2018-Feb-20 02:26N 34°33' E 135°27'0 0.0
2018-Feb-20 01:59N 34°33' E 135°27'0 0.0
2018-Feb-20 01:26N 34°33' E 135°27'0 0.0
2018-Feb-20 00:59N 34°33' E 135°27'0 0.0
2018-Feb-20 00:26N 34°33' E 135°27'0 0.0
2018-Feb-19 23:56N 34°33' E 135°27'0 0.0
2018-Feb-19 23:26N 34°33' E 135°27'0 0.0
2018-Feb-19 22:56N 34°33' E 135°27'0 0.0
2018-Feb-19 22:26N 34°33' E 135°27'0 0.0
2018-Feb-19 21:50N 34°33' E 135°27'0 0.0
2018-Feb-19 21:23N 34°33' E 135°27'0 0.0
2018-Feb-19 20:59N 34°33' E 135°27'0 0.0
2018-Feb-19 20:26N 34°33' E 135°27'0 0.0
2018-Feb-19 19:59N 34°33' E 135°27'0 0.0
2018-Feb-19 19:26N 34°33' E 135°27'0 0.0
2018-Feb-19 18:56N 34°33' E 135°27'0 0.0
2018-Feb-19 18:26N 34°33' E 135°27'0 0.0
2018-Feb-19 17:56N 34°33' E 135°27'0 0.0
2018-Feb-19 17:26N 34°33' E 135°27'0 0.0
2018-Feb-19 16:59N 34°33' E 135°27'0 0.0
2018-Feb-19 16:26N 34°33' E 135°27'0 0.0
2018-Feb-19 15:56N 34°33' E 135°27'0 0.0
2018-Feb-19 15:29N 34°33' E 135°27'0 0.0
2018-Feb-19 14:56N 34°33' E 135°27'0 0.0
2018-Feb-19 14:20N 34°33' E 135°27'0 0.0
2018-Feb-19 13:59N 34°33' E 135°27'0 0.0
2018-Feb-19 13:29N 34°33' E 135°27'0 0.0
2018-Feb-19 12:56N 34°33' E 135°27'0 0.0
2018-Feb-19 12:26N 34°33' E 135°27'0 0.0
2018-Feb-19 11:59N 34°33' E 135°27'0 0.0
2018-Feb-19 11:26N 34°33' E 135°27'0 0.0
2018-Feb-19 10:59N 34°33' E 135°27'0 0.0
2018-Feb-19 10:29N 34°33' E 135°27'0 0.0
2018-Feb-19 09:56N 34°33' E 135°27'0 0.0
2018-Feb-19 09:26N 34°33' E 135°27'0 0.0
2018-Feb-19 08:59N 34°33' E 135°27'0 0.0
2018-Feb-19 08:20N 34°33' E 135°27'0 0.0
2018-Feb-19 07:59N 34°33' E 135°27'4 9.0
2018-Feb-19 07:30N 34°34' E 135°21'612.8
2018-Feb-19 07:00N 34°35' E 135°14'5 8.5
2018-Feb-19 06:29N 34°38' E 135°10'1 2.7
2018-Feb-19 06:00N 34°39' E 135°11'1 2.8
2018-Feb-19 05:30N 34°40' E 135°11'0 0.5
2018-Feb-19 04:58N 34°40' E 135°11'0 0.0
2018-Feb-19 04:28N 34°40' E 135°11'0 0.1
2018-Feb-19 03:58N 34°40' E 135°11'0 0.0
2018-Feb-19 03:28N 34°40' E 135°11'0 0.0
2018-Feb-19 02:58N 34°40' E 135°11'0 0.2
2018-Feb-19 02:28N 34°41' E 135°11'0 0.0
2018-Feb-19 01:58N 34°41' E 135°11'0 0.1
2018-Feb-19 01:28N 34°41' E 135°11'0 0.1
2018-Feb-19 01:00N 34°41' E 135°11'0 0.0
2018-Feb-19 00:30N 34°41' E 135°11'0 0.0
2018-Feb-18 23:57N 34°41' E 135°11'0 0.0
2018-Feb-18 23:30N 34°41' E 135°11'0 0.0
2018-Feb-18 23:00N 34°41' E 135°11'0 0.0
2018-Feb-18 22:30N 34°40' E 135°11'0 0.1
2018-Feb-18 22:01N 34°41' E 135°11'1 1.7
2018-Feb-18 21:30N 34°40' E 135°12'2 4.6
2018-Feb-18 21:00N 34°37' E 135°11'3 5.4
2018-Feb-18 20:30N 34°37' E 135°14'2 4.0
2018-Feb-18 20:00N 34°39' E 135°15'2 4.2
2018-Feb-18 19:30N 34°41' E 135°14'0 0.2
2018-Feb-18 19:00N 34°41' E 135°14'0 0.1
2018-Feb-18 18:29N 34°41' E 135°14'0 0.0
2018-Feb-18 17:59N 34°41' E 135°14'0 0.0
2018-Feb-18 17:29N 34°41' E 135°14'0 0.0
2018-Feb-18 16:59N 34°41' E 135°14'0 0.0
2018-Feb-18 16:29N 34°41' E 135°14'0 0.0
2018-Feb-18 15:56N 34°41' E 135°14'0 0.0
2018-Feb-18 15:29N 34°41' E 135°14'0 0.0
2018-Feb-18 14:59N 34°41' E 135°14'0 0.0
2018-Feb-18 14:29N 34°41' E 135°14'0 0.0
2018-Feb-18 13:59N 34°41' E 135°14'0 0.0
2018-Feb-18 13:29N 34°41' E 135°14'0 0.0
2018-Feb-18 12:59N 34°41' E 135°14'0 0.0
2018-Feb-18 12:29N 34°41' E 135°14'0 0.0
2018-Feb-18 11:59N 34°41' E 135°14'0 0.0
2018-Feb-18 11:29N 34°41' E 135°14'0 0.0
2018-Feb-18 10:59N 34°41' E 135°14'0 0.0
2018-Feb-18 10:29N 34°41' E 135°14'0 0.0
2018-Feb-18 09:59N 34°41' E 135°14'0 0.0
2018-Feb-18 09:29N 34°41' E 135°14'0 0.0
2018-Feb-18 08:59N 34°41' E 135°14'4 8.1
2018-Feb-18 08:30N 34°40' E 135°19'611.9
2018-Feb-18 08:00N 34°39' E 135°26'0 0.2
2018-Feb-18 07:30N 34°39' E 135°26'1 1.6
2018-Feb-18 06:59N 34°39' E 135°26'0 0.0
2018-Feb-18 06:29N 34°39' E 135°26'0 0.0
2018-Feb-18 05:59N 34°39' E 135°26'0 0.0
2018-Feb-18 05:29N 34°39' E 135°26'0 0.0
2018-Feb-18 04:59N 34°39' E 135°26'1 2.5
2018-Feb-18 04:30N 34°39' E 135°25'610.5
2018-Feb-18 03:58N 34°33' E 135°23'3 5.5
2018-Feb-18 03:30N 34°31' E 135°23'1 2.5
2018-Feb-18 03:00N 34°32' E 135°23'1 1.9
2018-Feb-18 02:30N 34°33' E 135°23'3 6.3
2018-Feb-18 02:00N 34°33' E 135°26'0 0.7
2018-Feb-18 01:26N 34°33' E 135°27'0 0.0
2018-Feb-18 00:59N 34°33' E 135°27'0 0.0
2018-Feb-18 00:29N 34°33' E 135°27'0 0.0
2018-Feb-17 23:59N 34°33' E 135°27'0 0.0
2018-Feb-17 23:23N 34°33' E 135°27'0 0.0
2018-Feb-17 22:56N 34°33' E 135°27'0 0.0
2018-Feb-17 22:30N 34°33' E 135°27'0 0.0
2018-Feb-17 22:00N 34°33' E 135°27'0 0.0
2018-Feb-17 21:30N 34°33' E 135°27'0 0.0
2018-Feb-17 21:00N 34°33' E 135°27'0 0.0
2018-Feb-17 20:30N 34°33' E 135°27'0 0.0
2018-Feb-17 20:00N 34°33' E 135°27'0 0.0
2018-Feb-17 19:30N 34°33' E 135°27'0 0.0
2018-Feb-17 19:00N 34°33' E 135°27'0 0.0
2018-Feb-17 18:30N 34°33' E 135°27'0 0.0
2018-Feb-17 18:00N 34°33' E 135°27'0 0.0
2018-Feb-17 17:30N 34°33' E 135°27'0 0.0
2018-Feb-17 17:00N 34°33' E 135°27'0 0.0
2018-Feb-17 16:30N 34°33' E 135°27'0 0.0
2018-Feb-17 15:54N 34°33' E 135°27'0 0.0
2018-Feb-17 15:30N 34°33' E 135°27'0 0.0
2018-Feb-17 15:00N 34°33' E 135°27'0 0.0
2018-Feb-17 14:30N 34°33' E 135°27'0 0.0
2018-Feb-17 14:00N 34°33' E 135°27'0 0.0
2018-Feb-17 13:30N 34°33' E 135°27'0 0.0
2018-Feb-17 13:00N 34°33' E 135°27'0 0.0
2018-Feb-17 12:30N 34°33' E 135°27'0 0.0
2018-Feb-17 12:00N 34°33' E 135°27'0 0.0
2018-Feb-17 11:30N 34°33' E 135°27'0 0.0
2018-Feb-17 11:00N 34°33' E 135°27'0 0.0
2018-Feb-17 10:27N 34°33' E 135°27'0 0.0
2018-Feb-17 09:54N 34°33' E 135°27'0 0.0
2018-Feb-17 09:30N 34°33' E 135°27'0 0.0
2018-Feb-17 09:00N 34°33' E 135°27'0 0.0
2018-Feb-17 08:30N 34°33' E 135°27'0 0.0
2018-Feb-17 08:00N 34°33' E 135°27'0 0.0
2018-Feb-17 07:30N 34°33' E 135°27'1 2.4
2018-Feb-17 07:00N 34°33' E 135°25'0 0.1
2018-Feb-17 06:30N 34°33' E 135°25'1 2.2
2018-Feb-17 05:57N 34°33' E 135°27'0 0.0
2018-Feb-17 05:30N 34°33' E 135°27'1 1.4
2018-Feb-17 05:00N 34°33' E 135°26'0 0.6
2018-Feb-17 04:30N 34°33' E 135°25'0 0.2
2018-Feb-17 04:00N 34°33' E 135°26'0 0.3
2018-Feb-17 03:31N 34°33' E 135°26'0 0.4
2018-Feb-17 03:00N 34°33' E 135°26'0 0.1
2018-Feb-17 02:31N 34°33' E 135°26'0 0.3
2018-Feb-17 02:00N 34°33' E 135°25'1 2.7
2018-Feb-17 01:30N 34°33' E 135°24'1 1.2
2018-Feb-17 00:58N 34°34' E 135°24'1 2.6
2018-Feb-17 00:30N 34°33' E 135°26'0 0.4
2018-Feb-16 23:59N 34°33' E 135°26'0 0.1
2018-Feb-16 23:30N 34°33' E 135°26'1 1.0
2018-Feb-16 22:57N 34°33' E 135°27'0 0.0
2018-Feb-16 22:29N 34°33' E 135°27'0 0.0
2018-Feb-16 21:59N 34°33' E 135°27'0 0.0
2018-Feb-16 21:29N 34°33' E 135°27'0 0.0
2018-Feb-16 20:59N 34°33' E 135°27'0 0.0
2018-Feb-16 20:29N 34°33' E 135°27'0 0.0
2018-Feb-16 19:59N 34°33' E 135°27'0 0.0
2018-Feb-16 19:29N 34°33' E 135°27'0 0.0
2018-Feb-16 18:59N 34°33' E 135°27'0 0.0
2018-Feb-16 18:29N 34°33' E 135°27'0 0.0
2018-Feb-16 17:59N 34°33' E 135°27'0 0.0
2018-Feb-16 17:29N 34°33' E 135°27'0 0.0
2018-Feb-16 16:59N 34°33' E 135°27'0 0.0
2018-Feb-16 16:23N 34°33' E 135°27'0 0.0
2018-Feb-16 15:59N 34°33' E 135°27'0 0.0
2018-Feb-16 15:29N 34°33' E 135°27'0 0.0
2018-Feb-16 14:59N 34°33' E 135°27'0 0.0
2018-Feb-16 14:29N 34°33' E 135°27'0 0.0
2018-Feb-16 13:59N 34°33' E 135°27'0 0.0
2018-Feb-16 13:29N 34°33' E 135°27'0 0.0
2018-Feb-16 12:53N 34°33' E 135°27'0 0.0
2018-Feb-16 12:29N 34°33' E 135°27'0 0.0
2018-Feb-16 11:56N 34°33' E 135°27'0 0.0
2018-Feb-16 11:29N 34°33' E 135°27'0 0.0
2018-Feb-16 10:59N 34°33' E 135°27'0 0.0
2018-Feb-16 10:26N 34°33' E 135°27'2 3.6
2018-Feb-16 10:01N 34°33' E 135°25'611.6
2018-Feb-16 09:31N 34°39' E 135°22'2 4.4
2018-Feb-16 09:00N 34°41' E 135°21'2 4.9
2018-Feb-16 08:30N 34°39' E 135°23'2 4.7
2018-Feb-16 08:01N 34°39' E 135°25'2 3.1
2018-Feb-16 07:31N 34°39' E 135°27'1 1.5
2018-Feb-16 07:00N 34°39' E 135°28'1 2.4
2018-Feb-16 06:27N 34°38' E 135°27'0 0.0
2018-Feb-16 05:59N 34°38' E 135°27'0 0.0
2018-Feb-16 05:29N 34°38' E 135°27'0 0.0
2018-Feb-16 04:54N 34°38' E 135°27'0 0.0
2018-Feb-16 04:27N 34°38' E 135°27'0 0.0
2018-Feb-16 03:56N 34°38' E 135°27'0 0.0
2018-Feb-16 03:29N 34°38' E 135°27'0 0.0
2018-Feb-16 02:56N 34°38' E 135°27'0 0.0
2018-Feb-16 02:30N 34°38' E 135°27'0 0.0
2018-Feb-16 02:00N 34°38' E 135°27'0 0.0
2018-Feb-16 01:27N 34°38' E 135°27'0 0.0
2018-Feb-16 00:57N 34°38' E 135°27'0 0.0
2018-Feb-16 00:29N 34°38' E 135°27'0 0.0
2018-Feb-15 23:59N 34°38' E 135°27'0 0.0
2018-Feb-15 23:27N 34°38' E 135°27'0 0.0
2018-Feb-15 22:59N 34°38' E 135°27'0 0.0
2018-Feb-15 22:30N 34°38' E 135°27'0 0.0
2018-Feb-15 21:57N 34°38' E 135°27'0 0.0
2018-Feb-15 21:26N 34°38' E 135°27'0 0.0
2018-Feb-15 20:57N 34°38' E 135°27'1 2.7
2018-Feb-15 20:30N 34°39' E 135°28'1 1.1
2018-Feb-15 19:57N 34°39' E 135°27'1 1.5
2018-Feb-15 19:30N 34°38' E 135°27'0 0.1
2018-Feb-15 18:57N 34°38' E 135°27'0 0.0
2018-Feb-15 18:27N 34°38' E 135°27'0 0.0
2018-Feb-15 17:57N 34°38' E 135°27'0 0.0
2018-Feb-15 17:27N 34°38' E 135°27'0 0.0
2018-Feb-15 16:57N 34°38' E 135°27'0 0.0
2018-Feb-15 16:27N 34°38' E 135°27'0 0.0
2018-Feb-15 15:57N 34°38' E 135°27'0 0.0
2018-Feb-15 15:27N 34°38' E 135°27'0 0.0
2018-Feb-15 15:00N 34°38' E 135°27'0 0.0
2018-Feb-15 14:30N 34°38' E 135°27'0 0.0
2018-Feb-15 14:00N 34°38' E 135°27'  
Track history (hours):
 
Tides and Currents Weather Stations Pressure Air Temp Water Temp Dewpoint Dewpoint Depression Visibility Wind Speed Wind Dir Waves Ship Positions

Tsurugi

Last reported at 2018-Feb-25 13:28 UTC. Time now 2018-Feb-25 13:39 UTC.
Position N 34°33' E 135°27'.

Length 38 m; draft 4.9 m.

Type: Tug. MMSI: 431000584.

Date/timePositionNaut miles runAvg speedWind from/ knotsBaromVisibWave heightAir tempDewpointWater temp
2018-Feb-25 13:28N 34°33' E 135°27'0 0.0
2018-Feb-25 12:58N 34°33' E 135°27'0 0.0
2018-Feb-25 12:28N 34°33' E 135°27'0 0.0
2018-Feb-25 11:58N 34°33' E 135°27'0 0.0
2018-Feb-25 11:28N 34°33' E 135°27'0 0.0
2018-Feb-25 10:58N 34°33' E 135°27'0 0.0
2018-Feb-25 10:28N 34°33' E 135°27'0 0.0
2018-Feb-25 09:58N 34°33' E 135°27'0 0.0
2018-Feb-25 09:28N 34°33' E 135°27'0 0.5
2018-Feb-25 09:00N 34°33' E 135°26'2 4.8
2018-Feb-25 08:30N 34°32' E 135°24'0 0.2
2018-Feb-25 08:00N 34°32' E 135°24'1 2.7
2018-Feb-25 07:30N 34°31' E 135°24'0 0.1
2018-Feb-25 06:57N 34°31' E 135°24'0 0.0
2018-Feb-25 06:27N 34°31' E 135°24'0 0.0
2018-Feb-25 05:57N 34°31' E 135°24'0 0.0
2018-Feb-25 05:27N 34°31' E 135°24'3 7.5
2018-Feb-25 05:00N 34°34' E 135°23'611.8
2018-Feb-25 04:30N 34°39' E 135°25'0 0.5
2018-Feb-25 03:56N 34°40' E 135°25'0 0.0
2018-Feb-25 03:29N 34°40' E 135°25'0 0.0
2018-Feb-25 02:56N 34°40' E 135°25'1 2.0
2018-Feb-25 02:31N 34°39' E 135°24'510.1
2018-Feb-25 02:01N 34°34' E 135°24'1 1.2
2018-Feb-25 01:28N 34°33' E 135°24'0 0.1
2018-Feb-25 00:58N 34°33' E 135°24'0 0.0
2018-Feb-25 00:28N 34°33' E 135°24'0 1.0
2018-Feb-25 00:00N 34°33' E 135°24'3 5.3
2018-Feb-24 23:30N 34°33' E 135°20'0 0.4
2018-Feb-24 23:01N 34°33' E 135°20'510.1
2018-Feb-24 22:30N 34°33' E 135°27'0 0.0
2018-Feb-24 22:00N 34°33' E 135°27'0 0.0
2018-Feb-24 21:27N 34°33' E 135°27'0 0.0
2018-Feb-24 20:57N 34°33' E 135°27'0 0.0
2018-Feb-24 20:27N 34°33' E 135°27'0 0.0
2018-Feb-24 19:57N 34°33' E 135°27'0 0.0
2018-Feb-24 19:30N 34°33' E 135°27'0 0.0
2018-Feb-24 18:57N 34°33' E 135°27'0 0.0
2018-Feb-24 18:27N 34°33' E 135°27'0 0.0
2018-Feb-24 17:57N 34°33' E 135°27'0 0.0
2018-Feb-24 17:27N 34°33' E 135°27'0 0.0
2018-Feb-24 16:57N 34°33' E 135°27'0 0.0
2018-Feb-24 16:30N 34°33' E 135°27'0 0.0
2018-Feb-24 16:00N 34°33' E 135°27'0 0.0
2018-Feb-24 15:30N 34°33' E 135°27'0 0.0
2018-Feb-24 15:00N 34°33' E 135°27'0 0.0
2018-Feb-24 14:27N 34°33' E 135°27'0 0.0
2018-Feb-24 13:57N 34°33' E 135°27'0 0.0
2018-Feb-24 13:30N 34°33' E 135°27'0 0.0
2018-Feb-24 12:58N 34°33' E 135°27'4 7.8
2018-Feb-24 12:30N 34°36' E 135°24'3 5.1
2018-Feb-24 12:00N 34°35' E 135°27'1 1.2
2018-Feb-24 11:30N 34°35' E 135°26'2 4.1
2018-Feb-24 11:00N 34°36' E 135°24'0 0.7
2018-Feb-24 10:30N 34°36' E 135°24'0 0.0
2018-Feb-24 09:59N 34°36' E 135°24'0 0.0
2018-Feb-24 09:29N 34°36' E 135°24'2 4.8
2018-Feb-24 09:00N 34°35' E 135°26'1 1.1
2018-Feb-24 08:26N 34°35' E 135°27'0 0.3
2018-Feb-24 08:00N 34°35' E 135°27'0 0.0
2018-Feb-24 07:30N 34°35' E 135°27'0 0.0
2018-Feb-24 07:00N 34°35' E 135°27'0 0.0
2018-Feb-24 06:30N 34°35' E 135°27'3 6.0
2018-Feb-24 06:00N 34°35' E 135°24'1 2.4
2018-Feb-24 05:30N 34°34' E 135°24'0 0.7
2018-Feb-24 05:00N 34°34' E 135°24'0 0.3
2018-Feb-24 04:30N 34°34' E 135°24'1 1.3
2018-Feb-24 04:00N 34°33' E 135°25'1 2.4
2018-Feb-24 03:26N 34°33' E 135°27'0 0.0
2018-Feb-24 02:59N 34°33' E 135°27'0 0.0
2018-Feb-24 02:26N 34°33' E 135°27'0 0.0
2018-Feb-24 01:56N 34°33' E 135°27'0 0.0
2018-Feb-24 01:23N 34°33' E 135°27'0 0.0
2018-Feb-24 00:59N 34°33' E 135°27'0 0.0
2018-Feb-24 00:26N 34°33' E 135°27'0 0.0
2018-Feb-23 23:59N 34°33' E 135°27'2 3.8
2018-Feb-23 23:30N 34°33' E 135°24'510.3
2018-Feb-23 23:00N 34°39' E 135°24'0 0.7
2018-Feb-23 22:30N 34°38' E 135°23'1 1.9
2018-Feb-23 22:00N 34°38' E 135°23'4 8.7
2018-Feb-23 21:30N 34°33' E 135°24'2 3.4
2018-Feb-23 21:00N 34°33' E 135°27'0 0.0
2018-Feb-23 20:26N 34°33' E 135°27'0 0.0
2018-Feb-23 19:56N 34°33' E 135°27'0 0.0
2018-Feb-23 19:26N 34°33' E 135°27'0 0.0
2018-Feb-23 18:59N 34°33' E 135°27'0 0.0
2018-Feb-23 18:29N 34°33' E 135°27'0 0.0
2018-Feb-23 17:59N 34°33' E 135°27'0 0.1
2018-Feb-23 17:26N 34°33' E 135°27'0 0.0
2018-Feb-23 16:56N 34°33' E 135°27'0 0.0
2018-Feb-23 16:26N 34°33' E 135°27'0 0.0
2018-Feb-23 15:56N 34°33' E 135°27'0 0.0
2018-Feb-23 15:29N 34°33' E 135°27'0 0.0
2018-Feb-23 14:59N 34°33' E 135°27'0 0.0
2018-Feb-23 14:26N 34°33' E 135°27'0 0.0
2018-Feb-23 13:56N 34°33' E 135°27'0 0.0
2018-Feb-23 13:26N 34°33' E 135°27'0 0.0
2018-Feb-23 12:59N 34°33' E 135°27'0 0.0
2018-Feb-23 12:26N 34°33' E 135°27'0 0.0
2018-Feb-23 11:59N 34°33' E 135°27'0 0.0
2018-Feb-23 11:26N 34°33' E 135°27'0 0.0
2018-Feb-23 10:56N 34°33' E 135°27'0 0.0
2018-Feb-23 10:26N 34°33' E 135°27'0 0.0
2018-Feb-23 09:59N 34°33' E 135°27'0 0.0
2018-Feb-23 09:20N 34°33' E 135°27'0 0.0
2018-Feb-23 08:59N 34°33' E 135°27'0 0.0
2018-Feb-23 08:26N 34°33' E 135°27'0 0.0
2018-Feb-23 07:56N 34°33' E 135°27'0 0.0
2018-Feb-23 07:20N 34°33' E 135°27'0 0.0
2018-Feb-23 06:59N 34°33' E 135°27'0 0.0
2018-Feb-23 06:26N 34°33' E 135°27'0 0.0
2018-Feb-23 05:59N 34°33' E 135°27'0 0.0
2018-Feb-23 05:26N 34°33' E 135°27'0 0.0
2018-Feb-23 04:56N 34°33' E 135°27'0 0.0
2018-Feb-23 04:29N 34°33' E 135°27'0 0.0
2018-Feb-23 03:56N 34°33' E 135°27'0 0.0
2018-Feb-23 03:29N 34°33' E 135°27'0 0.0
2018-Feb-23 02:59N 34°33' E 135°27'0 0.0
2018-Feb-23 02:26N 34°33' E 135°27'0 0.0
2018-Feb-23 01:59N 34°33' E 135°27'0 0.0
2018-Feb-23 01:26N 34°33' E 135°27'0 0.0
2018-Feb-23 00:56N 34°33' E 135°27'0 0.0
2018-Feb-23 00:26N 34°33' E 135°27'0 0.0
2018-Feb-22 23:59N 34°33' E 135°27'0 0.0
2018-Feb-22 23:26N 34°33' E 135°27'0 0.0
2018-Feb-22 22:56N 34°33' E 135°27'0 0.0
2018-Feb-22 22:26N 34°33' E 135°27'0 0.0
2018-Feb-22 21:56N 34°33' E 135°27'0 0.0
2018-Feb-22 21:26N 34°33' E 135°27'0 0.0
2018-Feb-22 20:56N 34°33' E 135°27'0 0.0
2018-Feb-22 20:26N 34°33' E 135°27'0 0.0
2018-Feb-22 19:59N 34°33' E 135°27'0 0.0
2018-Feb-22 19:26N 34°33' E 135°27'0 0.0
2018-Feb-22 18:59N 34°33' E 135°27'0 0.0
2018-Feb-22 18:29N 34°33' E 135°27'0 0.0
2018-Feb-22 17:59N 34°33' E 135°27'0 0.1
2018-Feb-22 17:29N 34°33' E 135°27'0 0.0
2018-Feb-22 16:59N 34°33' E 135°27'0 0.0
2018-Feb-22 16:29N 34°33' E 135°27'0 0.0
2018-Feb-22 15:59N 34°33' E 135°27'0 0.0
2018-Feb-22 15:29N 34°33' E 135°27'0 0.0
2018-Feb-22 14:59N 34°33' E 135°27'0 0.0
2018-Feb-22 14:29N 34°33' E 135°27'0 0.0
2018-Feb-22 13:56N 34°33' E 135°27'0 0.0
2018-Feb-22 13:26N 34°33' E 135°27'0 0.0
2018-Feb-22 12:59N 34°33' E 135°27'0 0.0
2018-Feb-22 12:29N 34°33' E 135°27'0 0.0
2018-Feb-22 11:56N 34°33' E 135°27'0 0.0
2018-Feb-22 11:29N 34°33' E 135°27'0 0.0
2018-Feb-22 10:59N 34°33' E 135°27'0 0.0
2018-Feb-22 10:26N 34°33' E 135°27'0 0.0
2018-Feb-22 09:56N 34°33' E 135°27'0 0.0
2018-Feb-22 09:29N 34°33' E 135°27'0 0.0
2018-Feb-22 08:59N 34°33' E 135°27'0 0.0
2018-Feb-22 08:26N 34°33' E 135°27'3 7.6
2018-Feb-22 08:00N 34°36' E 135°24'4 7.1
2018-Feb-22 07:31N 34°39' E 135°26'0 0.2
2018-Feb-22 07:01N 34°39' E 135°26'0 0.1
2018-Feb-22 06:30N 34°39' E 135°26'1 2.4
2018-Feb-22 06:00N 34°39' E 135°24'4 8.0
2018-Feb-22 05:30N 34°35' E 135°22'4 8.4
2018-Feb-22 05:00N 34°31' E 135°21'3 5.8
2018-Feb-22 04:30N 34°28' E 135°21'1 1.4
2018-Feb-22 04:00N 34°29' E 135°20'3 5.9
2018-Feb-22 03:30N 34°31' E 135°22'5 9.7
2018-Feb-22 03:00N 34°36' E 135°24'0 0.0
2018-Feb-22 02:30N 34°36' E 135°24'0 0.0
2018-Feb-22 02:00N 34°36' E 135°24'0 0.0
2018-Feb-22 01:30N 34°36' E 135°24'0 0.0
2018-Feb-22 01:00N 34°36' E 135°24'2 4.1
2018-Feb-22 00:30N 34°35' E 135°26'1 1.5
2018-Feb-22 00:00N 34°35' E 135°27'2 4.3
2018-Feb-21 23:30N 34°36' E 135°24'1 1.9
2018-Feb-21 23:00N 34°36' E 135°23'1 1.7
2018-Feb-21 22:30N 34°35' E 135°23'4 6.9
2018-Feb-21 21:59N 34°33' E 135°27'0 0.0
2018-Feb-21 21:29N 34°33' E 135°27'0 0.0
2018-Feb-21 20:59N 34°33' E 135°27'0 0.0
2018-Feb-21 20:29N 34°33' E 135°27'0 0.0
2018-Feb-21 19:59N 34°33' E 135°27'0 0.0
2018-Feb-21 19:29N 34°33' E 135°27'0 0.0
2018-Feb-21 18:59N 34°33' E 135°27'0 0.0
2018-Feb-21 18:29N 34°33' E 135°27'0 0.0
2018-Feb-21 17:59N 34°33' E 135°27'0 0.0
2018-Feb-21 17:29N 34°33' E 135°27'0 0.0
2018-Feb-21 16:53N 34°33' E 135°27'0 0.0
2018-Feb-21 16:29N 34°33' E 135°27'0 0.0
2018-Feb-21 15:59N 34°33' E 135°27'0 0.0
2018-Feb-21 15:29N 34°33' E 135°27'0 0.0
2018-Feb-21 14:59N 34°33' E 135°27'0 0.0
2018-Feb-21 14:29N 34°33' E 135°27'0 0.1
2018-Feb-21 13:59N 34°33' E 135°27'0 0.1
2018-Feb-21 13:29N 34°33' E 135°27'0 0.0
2018-Feb-21 12:59N 34°33' E 135°27'0 0.0
2018-Feb-21 12:29N 34°33' E 135°27'0 0.0
2018-Feb-21 11:59N 34°33' E 135°27'0 0.0
2018-Feb-21 11:17N 34°33' E 135°27'0 0.0
2018-Feb-21 10:59N 34°33' E 135°27'0 0.0
2018-Feb-21 10:29N 34°33' E 135°27'0 0.0
2018-Feb-21 09:56N 34°33' E 135°27'0 0.0
2018-Feb-21 09:29N 34°33' E 135°27'0 0.0
2018-Feb-21 08:53N 34°33' E 135°27'0 0.0
2018-Feb-21 08:29N 34°33' E 135°27'0 0.0
2018-Feb-21 07:59N 34°33' E 135°27'0 0.0
2018-Feb-21 07:29N 34°33' E 135°27'0 0.0
2018-Feb-21 06:59N 34°33' E 135°27'0 0.0
2018-Feb-21 06:29N 34°33' E 135°27'0 0.0
2018-Feb-21 05:59N 34°33' E 135°27'0 0.0
2018-Feb-21 05:29N 34°33' E 135°27'0 0.0
2018-Feb-21 04:59N 34°33' E 135°27'0 0.0
2018-Feb-21 04:29N 34°33' E 135°27'0 0.0
2018-Feb-21 03:59N 34°33' E 135°27'0 0.0
2018-Feb-21 03:29N 34°33' E 135°27'0 0.0
2018-Feb-21 02:59N 34°33' E 135°27'0 0.0
2018-Feb-21 02:29N 34°33' E 135°27'0 0.0
2018-Feb-21 01:59N 34°33' E 135°27'0 0.0
2018-Feb-21 01:29N 34°33' E 135°27'0 0.0
2018-Feb-21 00:59N 34°33' E 135°27'0 0.0
2018-Feb-21 00:29N 34°33' E 135°27'0 0.0
2018-Feb-20 23:59N 34°33' E 135°27'0 0.0
2018-Feb-20 23:29N 34°33' E 135°27'0 0.9
2018-Feb-20 23:00N 34°33' E 135°26'2 4.5
2018-Feb-20 22:30N 34°36' E 135°26'1 2.6
2018-Feb-20 22:00N 34°35' E 135°27'2 3.6
2018-Feb-20 21:30N 34°36' E 135°25'1 2.7
2018-Feb-20 21:00N 34°36' E 135°23'4 7.3
2018-Feb-20 20:30N 34°33' E 135°27'0 0.0
2018-Feb-20 19:56N 34°33' E 135°27'0 0.0
2018-Feb-20 19:26N 34°33' E 135°27'0 0.0
2018-Feb-20 18:56N 34°33' E 135°27'0 0.0
2018-Feb-20 18:26N 34°33' E 135°27'0 0.0
2018-Feb-20 17:50N 34°33' E 135°27'0 0.1
2018-Feb-20 17:29N 34°33' E 135°27'0 0.0
2018-Feb-20 16:56N 34°33' E 135°27'0 0.0
2018-Feb-20 16:29N 34°33' E 135°27'0 0.0
2018-Feb-20 15:56N 34°33' E 135°27'0 0.0
2018-Feb-20 15:20N 34°33' E 135°27'0 0.0
2018-Feb-20 14:56N 34°33' E 135°27'0 0.0
2018-Feb-20 14:29N 34°33' E 135°27'0 0.0
2018-Feb-20 13:56N 34°33' E 135°27'0 0.0
2018-Feb-20 13:20N 34°33' E 135°27'0 0.0
2018-Feb-20 12:56N 34°33' E 135°27'0 0.0
2018-Feb-20 12:26N 34°33' E 135°27'0 0.0
2018-Feb-20 11:50N 34°33' E 135°27'0 0.0
2018-Feb-20 11:26N 34°33' E 135°27'0 0.0
2018-Feb-20 10:56N 34°33' E 135°27'0 0.0
2018-Feb-20 10:29N 34°33' E 135°27'0 0.0
2018-Feb-20 09:59N 34°33' E 135°27'0 0.0
2018-Feb-20 09:26N 34°33' E 135°27'0 0.0
2018-Feb-20 08:56N 34°33' E 135°27'0 0.0
2018-Feb-20 08:26N 34°33' E 135°27'0 0.0
2018-Feb-20 07:56N 34°33' E 135°27'0 0.0
2018-Feb-20 07:26N 34°33' E 135°27'0 0.0
2018-Feb-20 06:56N 34°33' E 135°27'0 0.0
2018-Feb-20 06:26N 34°33' E 135°27'0 0.0
2018-Feb-20 05:56N 34°33' E 135°27'0 0.0
2018-Feb-20 05:26N 34°33' E 135°27'0 0.0
2018-Feb-20 04:53N 34°33' E 135°27'0 0.0
2018-Feb-20 04:26N 34°33' E 135°27'0 0.0
2018-Feb-20 03:53N 34°33' E 135°27'0 0.0
2018-Feb-20 03:29N 34°33' E 135°27'0 0.0
2018-Feb-20 02:50N 34°33' E 135°27'0 0.0
2018-Feb-20 02:26N 34°33' E 135°27'0 0.0
2018-Feb-20 01:59N 34°33' E 135°27'0 0.0
2018-Feb-20 01:26N 34°33' E 135°27'0 0.0
2018-Feb-20 00:59N 34°33' E 135°27'0 0.0
2018-Feb-20 00:26N 34°33' E 135°27'0 0.0
2018-Feb-19 23:56N 34°33' E 135°27'0 0.0
2018-Feb-19 23:26N 34°33' E 135°27'0 0.0
2018-Feb-19 22:56N 34°33' E 135°27'0 0.0
2018-Feb-19 22:26N 34°33' E 135°27'0 0.0
2018-Feb-19 21:50N 34°33' E 135°27'0 0.0
2018-Feb-19 21:23N 34°33' E 135°27'0 0.0
2018-Feb-19 20:59N 34°33' E 135°27'0 0.0
2018-Feb-19 20:26N 34°33' E 135°27'0 0.0
2018-Feb-19 19:59N 34°33' E 135°27'0 0.0
2018-Feb-19 19:26N 34°33' E 135°27'0 0.0
2018-Feb-19 18:56N 34°33' E 135°27'0 0.0
2018-Feb-19 18:26N 34°33' E 135°27'0 0.0
2018-Feb-19 17:56N 34°33' E 135°27'0 0.0
2018-Feb-19 17:26N 34°33' E 135°27'0 0.0
2018-Feb-19 16:59N 34°33' E 135°27'0 0.0
2018-Feb-19 16:26N 34°33' E 135°27'0 0.0
2018-Feb-19 15:56N 34°33' E 135°27'0 0.0
2018-Feb-19 15:29N 34°33' E 135°27'0 0.0
2018-Feb-19 14:56N 34°33' E 135°27'0 0.0
2018-Feb-19 14:20N 34°33' E 135°27'0 0.0
2018-Feb-19 13:59N 34°33' E 135°27'0 0.0
2018-Feb-19 13:29N 34°33' E 135°27'0 0.0
2018-Feb-19 12:56N 34°33' E 135°27'0 0.0
2018-Feb-19 12:26N 34°33' E 135°27'0 0.0
2018-Feb-19 11:59N 34°33' E 135°27'0 0.0
2018-Feb-19 11:26N 34°33' E 135°27'0 0.0
2018-Feb-19 10:59N 34°33' E 135°27'0 0.0
2018-Feb-19 10:29N 34°33' E 135°27'0 0.0
2018-Feb-19 09:56N 34°33' E 135°27'0 0.0
2018-Feb-19 09:26N 34°33' E 135°27'0 0.0
2018-Feb-19 08:59N 34°33' E 135°27'0 0.0
2018-Feb-19 08:20N 34°33' E 135°27'0 0.0
2018-Feb-19 07:59N 34°33' E 135°27'4 9.0
2018-Feb-19 07:30N 34°34' E 135°21'612.8
2018-Feb-19 07:00N 34°35' E 135°14'5 8.5
2018-Feb-19 06:29N 34°38' E 135°10'1 2.7
2018-Feb-19 06:00N 34°39' E 135°11'1 2.8
2018-Feb-19 05:30N 34°40' E 135°11'0 0.5
2018-Feb-19 04:58N 34°40' E 135°11'0 0.0
2018-Feb-19 04:28N 34°40' E 135°11'0 0.1
2018-Feb-19 03:58N 34°40' E 135°11'0 0.0
2018-Feb-19 03:28N 34°40' E 135°11'0 0.0
2018-Feb-19 02:58N 34°40' E 135°11'0 0.2
2018-Feb-19 02:28N 34°41' E 135°11'0 0.0
2018-Feb-19 01:58N 34°41' E 135°11'0 0.1
2018-Feb-19 01:28N 34°41' E 135°11'0 0.1
2018-Feb-19 01:00N 34°41' E 135°11'0 0.0
2018-Feb-19 00:30N 34°41' E 135°11'0 0.0
2018-Feb-18 23:57N 34°41' E 135°11'0 0.0
2018-Feb-18 23:30N 34°41' E 135°11'0 0.0
2018-Feb-18 23:00N 34°41' E 135°11'0 0.0
2018-Feb-18 22:30N 34°40' E 135°11'0 0.1
2018-Feb-18 22:01N 34°41' E 135°11'1 1.7
2018-Feb-18 21:30N 34°40' E 135°12'2 4.6
2018-Feb-18 21:00N 34°37' E 135°11'3 5.4
2018-Feb-18 20:30N 34°37' E 135°14'2 4.0
2018-Feb-18 20:00N 34°39' E 135°15'2 4.2
2018-Feb-18 19:30N 34°41' E 135°14'0 0.2
2018-Feb-18 19:00N 34°41' E 135°14'0 0.1
2018-Feb-18 18:29N 34°41' E 135°14'0 0.0
2018-Feb-18 17:59N 34°41' E 135°14'0 0.0
2018-Feb-18 17:29N 34°41' E 135°14'0 0.0
2018-Feb-18 16:59N 34°41' E 135°14'0 0.0
2018-Feb-18 16:29N 34°41' E 135°14'0 0.0
2018-Feb-18 15:56N 34°41' E 135°14'0 0.0
2018-Feb-18 15:29N 34°41' E 135°14'0 0.0
2018-Feb-18 14:59N 34°41' E 135°14'0 0.0
2018-Feb-18 14:29N 34°41' E 135°14'0 0.0
2018-Feb-18 13:59N 34°41' E 135°14'0 0.0
2018-Feb-18 13:29N 34°41' E 135°14'0 0.0
2018-Feb-18 12:59N 34°41' E 135°14'0 0.0
2018-Feb-18 12:29N 34°41' E 135°14'0 0.0
2018-Feb-18 11:59N 34°41' E 135°14'0 0.0
2018-Feb-18 11:29N 34°41' E 135°14'0 0.0
2018-Feb-18 10:59N 34°41' E 135°14'0 0.0
2018-Feb-18 10:29N 34°41' E 135°14'0 0.0
2018-Feb-18 09:59N 34°41' E 135°14'0 0.0
2018-Feb-18 09:29N 34°41' E 135°14'0 0.0
2018-Feb-18 08:59N 34°41' E 135°14'4 8.1
2018-Feb-18 08:30N 34°40' E 135°19'611.9
2018-Feb-18 08:00N 34°39' E 135°26'0 0.2
2018-Feb-18 07:30N 34°39' E 135°26'1 1.6
2018-Feb-18 06:59N 34°39' E 135°26'0 0.0
2018-Feb-18 06:29N 34°39' E 135°26'0 0.0
2018-Feb-18 05:59N 34°39' E 135°26'0 0.0
2018-Feb-18 05:29N 34°39' E 135°26'0 0.0
2018-Feb-18 04:59N 34°39' E 135°26'1 2.5
2018-Feb-18 04:30N 34°39' E 135°25'610.5
2018-Feb-18 03:58N 34°33' E 135°23'3 5.5
2018-Feb-18 03:30N 34°31' E 135°23'1 2.5
2018-Feb-18 03:00N 34°32' E 135°23'1 1.9
2018-Feb-18 02:30N 34°33' E 135°23'3 6.3
2018-Feb-18 02:00N 34°33' E 135°26'0 0.7
2018-Feb-18 01:26N 34°33' E 135°27'0 0.0
2018-Feb-18 00:59N 34°33' E 135°27'0 0.0
2018-Feb-18 00:29N 34°33' E 135°27'0 0.0
2018-Feb-17 23:59N 34°33' E 135°27'0 0.0
2018-Feb-17 23:23N 34°33' E 135°27'0 0.0
2018-Feb-17 22:56N 34°33' E 135°27'0 0.0
2018-Feb-17 22:30N 34°33' E 135°27'0 0.0
2018-Feb-17 22:00N 34°33' E 135°27'0 0.0
2018-Feb-17 21:30N 34°33' E 135°27'0 0.0
2018-Feb-17 21:00N 34°33' E 135°27'0 0.0
2018-Feb-17 20:30N 34°33' E 135°27'0 0.0
2018-Feb-17 20:00N 34°33' E 135°27'0 0.0
2018-Feb-17 19:30N 34°33' E 135°27'0 0.0
2018-Feb-17 19:00N 34°33' E 135°27'0 0.0
2018-Feb-17 18:30N 34°33' E 135°27'0 0.0
2018-Feb-17 18:00N 34°33' E 135°27'0 0.0
2018-Feb-17 17:30N 34°33' E 135°27'0 0.0
2018-Feb-17 17:00N 34°33' E 135°27'0 0.0
2018-Feb-17 16:30N 34°33' E 135°27'0 0.0
2018-Feb-17 15:54N 34°33' E 135°27'0 0.0
2018-Feb-17 15:30N 34°33' E 135°27'0 0.0
2018-Feb-17 15:00N 34°33' E 135°27'0 0.0
2018-Feb-17 14:30N 34°33' E 135°27'0 0.0
2018-Feb-17 14:00N 34°33' E 135°27'0 0.0
2018-Feb-17 13:30N 34°33' E 135°27'0 0.0
2018-Feb-17 13:00N 34°33' E 135°27'0 0.0
2018-Feb-17 12:30N 34°33' E 135°27'0 0.0
2018-Feb-17 12:00N 34°33' E 135°27'0 0.0
2018-Feb-17 11:30N 34°33' E 135°27'0 0.0
2018-Feb-17 11:00N 34°33' E 135°27'0 0.0
2018-Feb-17 10:27N 34°33' E 135°27'0 0.0
2018-Feb-17 09:54N 34°33' E 135°27'0 0.0
2018-Feb-17 09:30N 34°33' E 135°27'0 0.0
2018-Feb-17 09:00N 34°33' E 135°27'0 0.0
2018-Feb-17 08:30N 34°33' E 135°27'0 0.0
2018-Feb-17 08:00N 34°33' E 135°27'0 0.0
2018-Feb-17 07:30N 34°33' E 135°27'1 2.4
2018-Feb-17 07:00N 34°33' E 135°25'0 0.1
2018-Feb-17 06:30N 34°33' E 135°25'1 2.2
2018-Feb-17 05:57N 34°33' E 135°27'0 0.0
2018-Feb-17 05:30N 34°33' E 135°27'1 1.4
2018-Feb-17 05:00N 34°33' E 135°26'0 0.6
2018-Feb-17 04:30N 34°33' E 135°25'0 0.2
2018-Feb-17 04:00N 34°33' E 135°26'0 0.3
2018-Feb-17 03:31N 34°33' E 135°26'0 0.4
2018-Feb-17 03:00N 34°33' E 135°26'0 0.1
2018-Feb-17 02:31N 34°33' E 135°26'0 0.3
2018-Feb-17 02:00N 34°33' E 135°25'1 2.7
2018-Feb-17 01:30N 34°33' E 135°24'1 1.2
2018-Feb-17 00:58N 34°34' E 135°24'1 2.6
2018-Feb-17 00:30N 34°33' E 135°26'0 0.4
2018-Feb-16 23:59N 34°33' E 135°26'0 0.1
2018-Feb-16 23:30N 34°33' E 135°26'1 1.0
2018-Feb-16 22:57N 34°33' E 135°27'0 0.0
2018-Feb-16 22:29N 34°33' E 135°27'0 0.0
2018-Feb-16 21:59N 34°33' E 135°27'0 0.0
2018-Feb-16 21:29N 34°33' E 135°27'0 0.0
2018-Feb-16 20:59N 34°33' E 135°27'0 0.0
2018-Feb-16 20:29N 34°33' E 135°27'0 0.0
2018-Feb-16 19:59N 34°33' E 135°27'0 0.0
2018-Feb-16 19:29N 34°33' E 135°27'0 0.0
2018-Feb-16 18:59N 34°33' E 135°27'0 0.0
2018-Feb-16 18:29N 34°33' E 135°27'0 0.0
2018-Feb-16 17:59N 34°33' E 135°27'0 0.0
2018-Feb-16 17:29N 34°33' E 135°27'0 0.0
2018-Feb-16 16:59N 34°33' E 135°27'0 0.0
2018-Feb-16 16:23N 34°33' E 135°27'0 0.0
2018-Feb-16 15:59N 34°33' E 135°27'0 0.0
2018-Feb-16 15:29N 34°33' E 135°27'0 0.0
2018-Feb-16 14:59N 34°33' E 135°27'0 0.0
2018-Feb-16 14:29N 34°33' E 135°27'0 0.0
2018-Feb-16 13:59N 34°33' E 135°27'0 0.0
2018-Feb-16 13:29N 34°33' E 135°27'0 0.0
2018-Feb-16 12:53N 34°33' E 135°27'0 0.0
2018-Feb-16 12:29N 34°33' E 135°27'0 0.0
2018-Feb-16 11:56N 34°33' E 135°27'0 0.0
2018-Feb-16 11:29N 34°33' E 135°27'0 0.0
2018-Feb-16 10:59N 34°33' E 135°27'0 0.0
2018-Feb-16 10:26N 34°33' E 135°27'2 3.6
2018-Feb-16 10:01N 34°33' E 135°25'611.6
2018-Feb-16 09:31N 34°39' E 135°22'2 4.4
2018-Feb-16 09:00N 34°41' E 135°21'2 4.9
2018-Feb-16 08:30N 34°39' E 135°23'2 4.7
2018-Feb-16 08:01N 34°39' E 135°25'2 3.1
2018-Feb-16 07:31N 34°39' E 135°27'1 1.5
2018-Feb-16 07:00N 34°39' E 135°28'1 2.4
2018-Feb-16 06:27N 34°38' E 135°27'0 0.0
2018-Feb-16 05:59N 34°38' E 135°27'0 0.0
2018-Feb-16 05:29N 34°38' E 135°27'0 0.0
2018-Feb-16 04:54N 34°38' E 135°27'0 0.0
2018-Feb-16 04:27N 34°38' E 135°27'0 0.0
2018-Feb-16 03:56N 34°38' E 135°27'0 0.0
2018-Feb-16 03:29N 34°38' E 135°27'0 0.0
2018-Feb-16 02:56N 34°38' E 135°27'0 0.0
2018-Feb-16 02:30N 34°38' E 135°27'0 0.0
2018-Feb-16 02:00N 34°38' E 135°27'0 0.0
2018-Feb-16 01:27N 34°38' E 135°27'0 0.0
2018-Feb-16 00:57N 34°38' E 135°27'0 0.0
2018-Feb-16 00:29N 34°38' E 135°27'0 0.0
2018-Feb-15 23:59N 34°38' E 135°27'0 0.0
2018-Feb-15 23:27N 34°38' E 135°27'0 0.0
2018-Feb-15 22:59N 34°38' E 135°27'0 0.0
2018-Feb-15 22:30N 34°38' E 135°27'0 0.0
2018-Feb-15 21:57N 34°38' E 135°27'0 0.0
2018-Feb-15 21:26N 34°38' E 135°27'0 0.0
2018-Feb-15 20:57N 34°38' E 135°27'1 2.7
2018-Feb-15 20:30N 34°39' E 135°28'1 1.1
2018-Feb-15 19:57N 34°39' E 135°27'1 1.5
2018-Feb-15 19:30N 34°38' E 135°27'0 0.1
2018-Feb-15 18:57N 34°38' E 135°27'0 0.0
2018-Feb-15 18:27N 34°38' E 135°27'0 0.0
2018-Feb-15 17:57N 34°38' E 135°27'0 0.0
2018-Feb-15 17:27N 34°38' E 135°27'0 0.0
2018-Feb-15 16:57N 34°38' E 135°27'0 0.0
2018-Feb-15 16:27N 34°38' E 135°27'0 0.0
2018-Feb-15 15:57N 34°38' E 135°27'0 0.0
2018-Feb-15 15:27N 34°38' E 135°27'0 0.0
2018-Feb-15 15:00N 34°38' E 135°27'0 0.0
2018-Feb-15 14:30N 34°38' E 135°27'0 0.0
2018-Feb-15 14:00N 34°38' E 135°27'  

Dump ship's entire track history